ADDS METAR Data INFO
IDs: Format: Raw Decoded Include TAF

Data at: 0629 UTC 15 Dec 2017

PADM 150625Z AUTO 06012KT 9SM -SN BKN016 BKN032 OVC070 M04/M05 A2951 RMK AO2 P0000 FZRANO
PADM 150556Z AUTO 05012KT 9SM -SN BKN012 OVC017 M04/M06 A2952 RMK AO2 SNB27 SLP005 P0000 60000 T10441056 11044 21078 56013 FZRANO
PADM 150515Z AUTO 06009KT 10SM BKN014 OVC022 M05/M06 A2953 RMK AO2 FZRANO
PADM 150456Z AUTO 05009KT 10SM BKN020 BKN028 OVC036 M05/M06 A2954 RMK AO2 SLP012 T10501061 FZRANO
PADM 150448Z AUTO 06010KT 10SM FEW023 BKN027 OVC043 M06/M07 A2954 RMK AO2 FZRANO
PADM 150356Z AUTO 07016KT 10SM OVC046 M07/M08 A2954 RMK AO2 SLP011 T10721083 FZRANO
PADM 150256Z AUTO 05011KT 10SM CLR M07/M08 A2956 RMK AO2 SLP018 T10721083 56013 FZRANO
PADM 150156Z AUTO 05010KT 10SM OVC090 M07/M08 A2956 RMK AO2 SLP020 T10671078 FZRANO
PADM 150056Z AUTO 04007KT 10SM OVC070 M08/M08 A2958 RMK AO2 SLP026 T10781083 FZRANO
PADM 142356Z AUTO 04007KT 10SM SCT027 OVC090 M07/M08 A2960 RMK AO2 SLP031 T10671078 11050 21089 56008 FZRANO
PADM 142327Z AUTO 02007KT 10SM SCT003 OVC090 M07/M08 A2959 RMK AO2 FZRANO
PADM 142316Z AUTO 03008KT 10SM BKN003 BKN090 M08/M08 A2960 RMK AO2 FZRANO
PADM 142303Z AUTO 06007KT 10SM SCT003 SCT075 M08/M09 A2960 RMK AO2 FZRANO
PADM 142256Z AUTO 04004KT 10SM FEW075 M08/M09 A2960 RMK AO2 SLP031 T10781089 FZRANO
PADM 142156Z AUTO 09005KT 10SM BKN043 BKN060 M08/M09 A2961 RMK AO2 SLP035 T10831089 FZRANO
PADM 142115Z AUTO 11004KT 10SM SCT004 OVC055 M08/M09 A2961 RMK AO2 FZRANO
PADM 142056Z AUTO 09004KT 10SM OVC004 M08/M08 A2962 RMK AO2 CIG 002V005 SLP039 T10781083 55000 FZRANO
PADM 142015Z AUTO 08004KT 10SM OVC002 M07/M08 A2962 RMK AO2 FZRANO
PADM 142001Z AUTO 05004KT 3SM BR BKN004 BKN050 OVC070 M08/M08 A2962 RMK AO2 FZRANO
PADM 141958Z AUTO 06003KT 1 1/4SM BR BKN004 BKN050 OVC070 M08/M08 A2962 RMK AO2 FZRANO
PADM 141956Z AUTO 06003KT 3/4SM BR BKN004 BKN050 OVC070 M08/M08 A2962 RMK AO2 SLP039 T10781083 FZRANO RVRNO
PADM 141953Z AUTO 07003KT 3/4SM BR SCT004 BKN050 OVC070 M08/M08 A2962 RMK AO2 FZRANO RVRNO
PADM 141949Z AUTO 05003KT 1 1/2SM BR SCT004 BKN050 OVC070 M08/M08 A2962 RMK AO2 FZRANO
PADM 141945Z AUTO 04003KT 10SM FEW004 BKN050 OVC070 M08/M08 A2962 RMK AO2 FZRANO
PADM 141938Z AUTO 05003KT 2 1/2SM BR FEW003 OVC050 M08/M08 A2962 RMK AO2 FZRANO
PADM 141935Z AUTO 04005KT 1SM BR FEW003 OVC050 M08/M08 A2962 RMK AO2 FZRANO RVRNO
PADM 141930Z AUTO 04005KT 1/2SM FZFG SCT003 OVC050 M08/M08 A2962 RMK AO2 FZRANO RVRNO
PADM 141926Z AUTO 06007KT 1SM BR SCT003 BKN050 M08/M08 A2961 RMK AO2 FZRANO RVRNO
PADM 141923Z AUTO 06008KT 2SM BR SCT003 BKN050 M08/M08 A2962 RMK AO2 FZRANO
PADM 141856Z AUTO 07005KT 4SM BR BKN003 M07/M07 A2962 RMK AO2 SLP038 T10671072 FZRANO
PADM 141854Z AUTO 07005KT 3SM BR OVC003 M07/M07 A2962 RMK AO2 FZRANO
PADM 141842Z AUTO 08007KT 1 3/4SM BR OVC003 M06/M07 A2962 RMK AO2 FZRANO
PADM 141820Z AUTO 09006KT 8SM OVC003 M06/M06 A2962 RMK AO2 FZRANO
PADM 141756Z AUTO 09004KT 10SM OVC005 M05/M06 A2962 RMK AO2 SLP039 60000 T10501061 11033 21050 58008 FZRANO
PADM 141656Z AUTO 00000KT 10SM OVC005 M05/M06 A2963 RMK AO2 SLP043 T10501056 FZRANO
PADM 141556Z AUTO 00000KT 10SM OVC005 M04/M06 A2963 RMK AO2 SLP043 T10441056 FZRANO
PADM 141456Z AUTO 19004KT 10SM OVC005 M04/M05 A2964 RMK AO2 CIG 004V008 SLP047 60000 T10441050 51003 FZRANO
PADM 141356Z AUTO 23004KT 10SM OVC005 M04/M05 A2964 RMK AO2 SNE33 SLP047 P0000 T10391050 FZRANO
PADM 141256Z AUTO 20004KT 9SM -SN BKN005 BKN010 OVC021 M04/M04 A2964 RMK AO2 CIG 004V009 SLP047 P0000 T10391044 FZRANO
PADM 141156Z AUTO 22006KT 8SM -SN OVC005 M03/M04 A2964 RMK AO2 SNE28B45 CIG 004V009 SLP044 P0000 60000 T10331039 11022 21033 53016 FZRANO
PADM 141114Z AUTO 22008KT 3SM -SN BR OVC005 M03/M03 A2963 RMK AO2 P0000 FZRANO
PADM 141056Z AUTO 22006KT 1 1/2SM -SN BR OVC005 M03/M03 A2963 RMK AO2 CIG 003V007 SLP040 P0000 T10281033 FZRANO
PADM 141052Z AUTO 21007KT 2SM -SN BR OVC005 M03/M03 A2963 RMK AO2 CIG 003V007 P0000 FZRANO
PADM 141032Z AUTO 21009KT 5SM -SN BR BKN003 OVC009 M03/M03 A2963 RMK AO2 CIG 003V007 P0000 FZRANO
PADM 141015Z AUTO 21006KT 2 1/2SM -SN BR OVC003 M03/M03 A2962 RMK AO2 VIS 2V4 P0000 FZRANO
PADM 141004Z AUTO 21006KT 2 1/2SM -SN BR OVC005 M03/M03 A2962 RMK AO2 VIS 1 1/2V5 CIG 003V009 P0000 FZRANO
PADM 140956Z AUTO 22008KT 3SM -SN BR BKN003 OVC010 M03/M03 A2960 RMK AO2 SNE00B25 SLP032 P0000 T10281033 FZRANO
PADM 140926Z AUTO 22005KT 7SM -SN OVC003 M02/M03 A2959 RMK AO2 SNE00B25 P0000 FZRANO
PADM 140856Z AUTO 22008KT 7SM -SN OVC005 M02/M03 A2959 RMK AO2 SLP028 P0000 60000 T10221028 53007 FZRANO
PADM 140830Z AUTO 22006KT 4SM -SN BR OVC005 M02/M03 A2959 RMK AO2 CIG 003V007 P0000 FZRANO
PADM 140814Z AUTO 21005KT 4SM -SN BR OVC003 M02/M02 A2959 RMK AO2 P0000 FZRANO
PADM 140756Z AUTO 20007KT 2SM -SN BR OVC003 M02/M02 A2959 RMK AO2 SLP027 P0000 T10221022 400441022 FZRANO
PADM 140738Z AUTO 20007KT 4SM -SN BR BKN005 OVC012 M02/M03 A2958 RMK AO2 CIG 003V009 P0000 FZRANO
PADM 140726Z AUTO 20008KT 3SM -SN BR BKN007 OVC012 M02/M03 A2958 RMK AO2 CIG 005V009 P0000 FZRANO
PADM 140717Z AUTO 19007KT 4SM -SN BR SCT007 OVC012 M02/M03 A2958 RMK AO2 P0000 FZRANO
PADM 140656Z AUTO 20006KT 4SM -SN BR BKN007 OVC014 M02/M02 A2957 RMK AO2 UPE05SNB15 CIG 006V010 SLP021 P0000 T10221022 FZRANO
PADM 140652Z AUTO 19006KT 4SM -SN BR SCT007 OVC012 M02/M03 A2957 RMK AO2 UPE05SNB15 P0000 FZRANO
PADM 140645Z AUTO 20008KT 2 1/2SM -SN BR FEW005 BKN009 OVC014 M02/M02 A2957 RMK AO2 VIS 1 3/4V5 UPE05SNB15 CIG 007V011 P0000 FZRANO
PADM 140637Z AUTO 21006KT 1 3/4SM -SN BR SCT005 OVC011 M02/M03 A2956 RMK AO2 UPE05SNB15 P0000 FZRANO
PADM 140629Z AUTO 21007KT 2 1/2SM -SN BR BKN005 OVC011 M02/M02 A2956 RMK AO2 VIS 1 1/2V4 UPE05SNB15 CIG 003V007 P0000 FZRANO
PADM 140559Z AUTO 21008KT 3SM UP BR OVC005 M02/M02 A2952 RMK AO2 P0000 FZRANO
PADM 140556Z AUTO 21006KT 1 1/2SM UP BR OVC005 M02/M02 A2952 RMK AO2 UPB53SNB20E53 SLP004 P0000 60000 T10221022 10006 21022 51027 FZRANO
PADM 140547Z AUTO 23007KT 1SM -SN BR OVC005 M02/M02 A2952 RMK AO2 SNB20 P0000 FZRANO RVRNO
PADM 140521Z AUTO 19007KT 3/4SM -SN BR OVC005 M02/M02 A2951 RMK AO2 SNB20 P0000 FZRANO RVRNO
PADM 140509Z AUTO 22007KT 1 1/4SM BR OVC003 M02/M02 A2951 RMK AO2 FZRANO
PADM 140503Z AUTO 20007KT 3/4SM BR OVC003 M02/M02 A2950 RMK AO2 FZRANO RVRNO
PADM 140456Z AUTO 21006KT 1SM BR OVC003 M02/M02 A2949 RMK AO2 SLP996 T10171017 FZRANO RVRNO
PADM 140426Z AUTO 23006KT 1 3/4SM BR OVC003 M02/M02 A2949 RMK AO2 VIS 1 1/4V5 FZRANO
PADM 140420Z AUTO 24007KT 4SM BR OVC003 M02/M02 A2948 RMK AO2 FZRANO
PADM 140412Z AUTO 23008KT 2SM BR OVC003 M01/M02 A2948 RMK AO2 FZRANO
PADM 140402Z AUTO 21007KT 1SM BR OVC003 M01/M02 A2947 RMK AO2 FZRANO RVRNO
PADM 140356Z AUTO 21006KT 3/4SM BR OVC005 M01/M02 A2947 RMK AO2 SNE46 CIG 003V007 SLP988 P0000 T10111017 FZRANO RVRNO
PADM 140343Z AUTO 21008KT 3/4SM -SN BR BKN005 BKN009 OVC015 M01/M02 A2947 RMK AO2 CIG 003V007 P0000 FZRANO RVRNO
PADM 140256Z AUTO 21008KT 1 1/4SM -SN BR OVC005 M01/M01 A2944 RMK AO2 UPE46SNB46 CIG 003V007 SLP977 P0000 60000 T10111011 53005 FZRANO
PADM 140230Z AUTO 21010KT 1 1/4SM UP BR OVC005 M01/M01 A2942 RMK AO2 CIG 003V010 P0000 FZRANO
PADM 140218Z AUTO 21008KT 1SM UP BR BKN005 OVC013 00/M01 A2942 RMK AO2 CIG 003V009 P0000 FZRANO RVRNO
PADM 140156Z AUTO 21005KT 3/4SM UP BR BKN007 BKN014 OVC021 00/M01 A2942 RMK AO2 UPB13 CIG 006V010 SLP970 P0000 T00001006 FZRANO RVRNO
PADM 140138Z AUTO 20006KT 3/4SM UP BR BKN007 OVC014 00/M01 A2941 RMK AO2 UPB13 CIG 005V011 P0000 FZRANO RVRNO
PADM 140116Z AUTO 20004KT 1/2SM UP FG OVC005 00/00 A2940 RMK AO2 UPB13 P0000 FZRANO RVRNO
PADM 140056Z AUTO 19005KT 1/4SM FG OVC005 01/00 A2941 RMK AO2 SLP967 T00060000 FZRANO RVRNO
PADM 140028Z AUTO 20004KT 1/4SM FG OVC005 01/00 A2941 RMK AO2 FZRANO RVRNO
PADM 140021Z AUTO 21003KT 3/4SM BR OVC005 01/00 A2942 RMK AO2 CIG 003V008 FZRANO RVRNO
PADM 140018Z AUTO 21003KT 1 1/2SM BR OVC005 01/00 A2942 RMK AO2 VIS 1/2V5 CIG 003V008 FZRANO
PADM 140004Z AUTO 22006KT 10SM BKN005 OVC010 01/00 A2942 RMK AO2 CIG 004V007 FZRANO
PADM 132356Z AUTO 23007KT 10SM OVC010 01/00 A2942 RMK AO2 CIG 006V012 SLP972 60000 T00060000 10017 20000 50012 FZRANO
PADM 132331Z AUTO 00000KT 10SM BKN012 BKN026 OVC055 01/M01 A2943 RMK AO2 FZRANO
PADM 132256Z AUTO 00000KT 10SM BKN016 OVC026 01/M01 A2943 RMK AO2 RAE09 SLP974 P0000 T00061006 FZRANO
PADM 132156Z AUTO 00000KT 10SM -RA BKN025 OVC055 01/M01 A2940 RMK AO2 UPB53E55RAB55 SLP965 P0000 T00061006 FZRANO
PADM 132146Z AUTO 21003KT 10SM BKN025 OVC060 01/M01 A2939 RMK AO2 FZRANO
PADM 132056Z AUTO 24003KT 10SM FEW044 BKN065 OVC110 01/M01 A2939 RMK AO2 SLP960 T00061006 58001 FZRANO
PADM 132038Z AUTO 00000KT 10SM FEW023 SCT033 OVC110 01/M01 A2938 RMK AO2 FZRANO
PADM 132020Z AUTO 00000KT 10SM BKN023 OVC037 01/M01 A2938 RMK AO2 FZRANO
PADM 131956Z AUTO 09004KT 10SM BKN039 OVC110 01/00 A2938 RMK AO2 SLP959 T00110000 FZRANO
PADM 131856Z AUTO 08007KT 10SM BKN043 02/00 A2940 RMK AO2 SLP964 T00170000 FZRANO